sensor_id;sensor_type;location;lat;lon;timestamp;pressure;altitude;pressure_sealevel;temperature;humidity
50652;BME280;66928;52.086;5.240;2023-04-02T05:28:41;101728.0;;;3.94;81.73
50652;BME280;66928;52.086;5.240;2023-04-02T05:30:42;101719.0;;;3.86;81.39
50652;BME280;66928;52.086;5.240;2023-04-02T05:32:35;101721.0;;;3.73;81.17
50652;BME280;66928;52.086;5.240;2023-04-02T05:34:22;101721.0;;;3.76;81.44
50652;BME280;66928;52.086;5.240;2023-04-02T05:36:03;101728.0;;;3.75;81.53
50652;BME280;66928;52.086;5.240;2023-04-02T05:39:21;101732.0;;;3.71;80.78
50652;BME280;66928;52.086;5.240;2023-04-02T05:41:00;101737.0;;;3.61;80.87
50652;BME280;66928;52.086;5.240;2023-04-02T05:42:39;101734.0;;;3.53;80.83
50652;BME280;66928;52.086;5.240;2023-04-02T05:44:21;101737.0;;;3.49;81.09
50652;BME280;66928;52.086;5.240;2023-04-02T05:47:52;101748.0;;;3.41;80.74
50652;BME280;66928;52.086;5.240;2023-04-02T05:49:33;101758.0;;;3.31;81.02
50652;BME280;66928;52.086;5.240;2023-04-02T05:51:18;101751.0;;;3.31;81.33
50652;BME280;66928;52.086;5.240;2023-04-02T05:53:02;101760.0;;;3.22;81.02
50652;BME280;66928;52.086;5.240;2023-04-02T05:54:46;101771.0;;;3.23;80.73
50652;BME280;66928;52.086;5.240;2023-04-02T05:58:09;101773.0;;;3.19;80.91
50652;BME280;66928;52.086;5.240;2023-04-02T05:59:52;101782.0;;;3.12;81.38
50652;BME280;66928;52.086;5.240;2023-04-02T06:01:36;101788.0;;;3.09;81.5
50652;BME280;66928;52.086;5.240;2023-04-02T06:03:20;101790.0;;;3.18;81.25
50652;BME280;66928;52.086;5.240;2023-04-02T06:06:45;101813.0;;;3.19;81.19
50652;BME280;66928;52.086;5.240;2023-04-02T06:08:26;101806.0;;;3.08;81.66
50652;BME280;66928;52.086;5.240;2023-04-02T06:10:09;101814.0;;;3.08;81.25
50652;BME280;66928;52.086;5.240;2023-04-02T06:11:51;101817.0;;;3.16;81.08
50652;BME280;66928;52.086;5.240;2023-04-02T06:13:32;101822.0;;;3.13;80.63
50652;BME280;66928;52.086;5.240;2023-04-02T06:16:49;101827.0;;;3.19;80.27
50652;BME280;66928;52.086;5.240;2023-04-02T06:18:26;101830.0;;;3.13;80.41
50652;BME280;66928;52.086;5.240;2023-04-02T06:20:06;101838.0;;;3.06;80.41
50652;BME280;66928;52.086;5.240;2023-04-02T06:23:23;101848.0;;;3.01;80.86
50652;BME280;66928;52.086;5.240;2023-04-02T06:25:07;101853.0;;;3.02;81.16
50652;BME280;66928;52.086;5.240;2023-04-02T06:26:50;101861.0;;;2.99;81.49
50652;BME280;66928;52.086;5.240;2023-04-02T06:28:35;101861.0;;;3.03;81.34
50652;BME280;66928;52.086;5.240;2023-04-02T06:30:17;101868.0;;;3.03;81.7
50652;BME280;66928;52.086;5.240;2023-04-02T06:33:36;101866.0;;;3.04;81.3
50652;BME280;66928;52.086;5.240;2023-04-02T06:35:13;101868.0;;;3.04;81.38
50652;BME280;66928;52.086;5.240;2023-04-02T06:36:54;101883.0;;;3.07;81.14
50652;BME280;66928;52.086;5.240;2023-04-02T06:38:33;101877.0;;;3.14;81.14
50652;BME280;66928;52.086;5.240;2023-04-02T06:42:14;101888.0;;;3.19;80.69
50652;BME280;66928;52.086;5.240;2023-04-02T06:43:54;101888.0;;;3.24;80.75
50652;BME280;66928;52.086;5.240;2023-04-02T06:45:37;101893.0;;;3.19;80.31
50652;BME280;66928;52.086;5.240;2023-04-02T06:47:23;101900.0;;;3.1;80.64
50652;BME280;66928;52.086;5.240;2023-04-02T06:49:12;101911.0;;;3.02;80.75
50652;BME280;66928;52.086;5.240;2023-04-02T06:52:37;101902.0;;;2.97;80.64
50652;BME280;66928;52.086;5.240;2023-04-02T06:54:19;101909.0;;;3.02;81.19
50652;BME280;66928;52.086;5.240;2023-04-02T06:56:02;101916.0;;;3.14;81.44
50652;BME280;66928;52.086;5.240;2023-04-02T06:57:39;101910.0;;;3.08;81.19
50652;BME280;66928;52.086;5.240;2023-04-02T07:00:54;101928.0;;;3.1;81.13
50652;BME280;66928;52.086;5.240;2023-04-02T07:02:33;101927.0;;;3.2;81.16
50652;BME280;66928;52.086;5.240;2023-04-02T07:04:13;101926.0;;;3.17;80.87
50652;BME280;66928;52.086;5.240;2023-04-02T07:05:50;101939.0;;;3.08;81.16
50652;BME280;66928;52.086;5.240;2023-04-02T07:09:03;101949.0;;;3.09;80.91
50652;BME280;66928;52.086;5.240;2023-04-02T07:10:40;101946.0;;;3.05;80.59
50652;BME280;66928;52.086;5.240;2023-04-02T07:12:21;101945.0;;;3.09;81.53
50652;BME280;66928;52.086;5.240;2023-04-02T07:15:35;101953.0;;;3.17;81.41
50652;BME280;66928;52.086;5.240;2023-04-02T07:17:14;101959.0;;;3.07;80.91
50652;BME280;66928;52.086;5.240;2023-04-02T07:18:52;101963.0;;;3.11;81.63
50652;BME280;66928;52.086;5.240;2023-04-02T07:20:32;101967.0;;;3.1;81.12
50652;BME280;66928;52.086;5.240;2023-04-02T07:23:45;101976.0;;;3.16;81.38
50652;BME280;66928;52.086;5.240;2023-04-02T07:25:21;101972.0;;;3.11;81.52
50652;BME280;66928;52.086;5.240;2023-04-02T07:26:58;101990.0;;;3.25;81.38
50652;BME280;66928;52.086;5.240;2023-04-02T07:30:11;101989.0;;;3.19;81.19
50652;BME280;66928;52.086;5.240;2023-04-02T07:31:47;101987.0;;;3.28;81.33
50652;BME280;66928;52.086;5.240;2023-04-02T07:33:25;101991.0;;;3.21;81.84
50652;BME280;66928;52.086;5.240;2023-04-02T07:35:06;101995.0;;;3.23;81.64
50652;BME280;66928;52.086;5.240;2023-04-02T07:38:19;101997.0;;;3.31;81.86
50652;BME280;66928;52.086;5.240;2023-04-02T07:39:55;102005.0;;;3.3;81.95
50652;BME280;66928;52.086;5.240;2023-04-02T07:41:32;102005.0;;;3.42;82.08
50652;BME280;66928;52.086;5.240;2023-04-02T07:44:45;102005.0;;;3.5;81.75
50652;BME280;66928;52.086;5.240;2023-04-02T07:46:21;102014.0;;;3.45;81.27
50652;BME280;66928;52.086;5.240;2023-04-02T07:48:03;102010.0;;;3.5;81.67
50652;BME280;66928;52.086;5.240;2023-04-02T07:49:40;102020.0;;;3.46;81.38
50652;BME280;66928;52.086;5.240;2023-04-02T07:52:55;102038.0;;;3.42;80.94
50652;BME280;66928;52.086;5.240;2023-04-02T07:54:31;102041.0;;;3.29;81.13
50652;BME280;66928;52.086;5.240;2023-04-02T07:56:12;102040.0;;;3.36;81.41
50652;BME280;66928;52.086;5.240;2023-04-02T07:59:28;102037.0;;;3.31;81.3
50652;BME280;66928;52.086;5.240;2023-04-02T08:01:14;102039.0;;;3.32;81.14
50652;BME280;66928;52.086;5.240;2023-04-02T08:02:51;102036.0;;;3.28;81.08
50652;BME280;66928;52.086;5.240;2023-04-02T08:04:28;102057.0;;;3.16;81.3
50652;BME280;66928;52.086;5.240;2023-04-02T08:07:43;102034.0;;;3.19;81.03
50652;BME280;66928;52.086;5.240;2023-04-02T08:09:20;102042.0;;;3.23;81.2
50652;BME280;66928;52.086;5.240;2023-04-02T08:10:56;102044.0;;;3.19;80.84
50652;BME280;66928;52.086;5.240;2023-04-02T08:14:08;102046.0;;;3.3;80.92
50652;BME280;66928;52.086;5.240;2023-04-02T08:15:45;102055.0;;;3.29;80.94
50652;BME280;66928;52.086;5.240;2023-04-02T08:17:22;102055.0;;;3.36;81.08
50652;BME280;66928;52.086;5.240;2023-04-02T08:18:59;102058.0;;;3.31;80.19
50652;BME280;66928;52.086;5.240;2023-04-02T08:22:12;102064.0;;;3.38;80.12
50652;BME280;66928;52.086;5.240;2023-04-02T08:23:49;102069.0;;;3.42;80.19
50652;BME280;66928;52.086;5.240;2023-04-02T08:25:26;102077.0;;;3.32;80.16
50652;BME280;66928;52.086;5.240;2023-04-02T08:28:40;102082.0;;;3.33;80.3
50652;BME280;66928;52.086;5.240;2023-04-02T08:30:17;102090.0;;;3.4;79.64
50652;BME280;66928;52.086;5.240;2023-04-02T08:31:54;102093.0;;;3.35;79.77
50652;BME280;66928;52.086;5.240;2023-04-02T08:35:08;102091.0;;;3.38;80.48
50652;BME280;66928;52.086;5.240;2023-04-02T08:36:45;102094.0;;;3.45;79.81
50652;BME280;66928;52.086;5.240;2023-04-02T08:38:21;102094.0;;;3.52;79.86
50652;BME280;66928;52.086;5.240;2023-04-02T08:43:24;102101.0;;;3.38;79.66
50652;BME280;66928;52.086;5.240;2023-04-02T08:45:16;102106.0;;;3.42;79.11
50652;BME280;66928;52.086;5.240;2023-04-02T08:46:58;102105.0;;;3.37;78.94
50652;BME280;66928;52.086;5.240;2023-04-02T08:48:39;102123.0;;;3.4;79.2
50652;BME280;66928;52.086;5.240;2023-04-02T08:50:26;102113.0;;;3.35;79.94
50652;BME280;66928;52.086;5.240;2023-04-02T08:54:00;102117.0;;;3.58;80.3
50652;BME280;66928;52.086;5.240;2023-04-02T08:55:41;102124.0;;;3.63;79.61
50652;BME280;66928;52.086;5.240;2023-04-02T08:57:28;102130.0;;;3.72;78.59
50652;BME280;66928;52.086;5.240;2023-04-02T08:59:20;102146.0;;;3.74;77.88
50652;BME280;66928;52.086;5.240;2023-04-02T09:01:01;102141.0;;;3.83;78.16
50652;BME280;66928;52.086;5.240;2023-04-02T09:04:23;102142.0;;;3.92;77.64
50652;BME280;66928;52.086;5.240;2023-04-02T09:06:01;102145.0;;;3.92;77.91
50652;BME280;66928;52.086;5.240;2023-04-02T09:07:39;102152.0;;;3.96;77.81
50652;BME280;66928;52.086;5.240;2023-04-02T09:09:16;102157.0;;;3.78;77.58
50652;BME280;66928;52.086;5.240;2023-04-02T09:12:39;102161.0;;;3.96;77.86
50652;BME280;66928;52.086;5.240;2023-04-02T09:14:20;102169.0;;;3.72;76.91
50652;BME280;66928;52.086;5.240;2023-04-02T09:16:03;102163.0;;;3.61;77.36
50652;BME280;66928;52.086;5.240;2023-04-02T09:17:43;102172.0;;;3.51;77.3
50652;BME280;66928;52.086;5.240;2023-04-02T09:22:49;102180.0;;;3.49;77.44
50652;BME280;66928;52.086;5.240;2023-04-02T09:24:26;102191.0;;;3.52;77.37
50652;BME280;66928;52.086;5.240;2023-04-02T09:26:18;102187.0;;;3.61;77.8
50652;BME280;66928;52.086;5.240;2023-04-02T09:28:00;102198.0;;;3.56;76.86
50652;BME280;66928;52.086;5.240;2023-04-02T09:31:21;102195.0;;;3.53;77.36
50652;BME280;66928;52.086;5.240;2023-04-02T09:33:03;102203.0;;;3.74;77.05
50652;BME280;66928;52.086;5.240;2023-04-02T09:34:41;102203.0;;;3.72;76.8
50652;BME280;66928;52.086;5.240;2023-04-02T09:38:21;102205.0;;;3.79;76.42
50652;BME280;66928;52.086;5.240;2023-04-02T09:40:15;102211.0;;;3.87;76.74
50652;BME280;66928;52.086;5.240;2023-04-02T09:42:05;102207.0;;;3.89;76.83
50652;BME280;66928;52.086;5.240;2023-04-02T09:43:43;102215.0;;;3.93;76.12
50652;BME280;66928;52.086;5.240;2023-04-02T09:45:20;102210.0;;;4.03;76.25
50652;BME280;66928;52.086;5.240;2023-04-02T09:47:00;102219.0;;;4.1;75.77
50652;BME280;66928;52.086;5.240;2023-04-02T09:50:24;102221.0;;;4.03;75.02
50652;BME280;66928;52.086;5.240;2023-04-02T09:52:13;102221.0;;;4.07;74.91
50652;BME280;66928;52.086;5.240;2023-04-02T09:54:13;102225.0;;;4.14;74.22
50652;BME280;66928;52.086;5.240;2023-04-02T09:56:06;102235.0;;;4.2;74.14
50652;BME280;66928;52.086;5.240;2023-04-02T09:57:45;102231.0;;;4.28;73.52
50652;BME280;66928;52.086;5.240;2023-04-02T09:59:22;102241.0;;;4.25;72.73
50652;BME280;66928;52.086;5.240;2023-04-02T10:02:36;102230.0;;;4.49;72.72
50652;BME280;66928;52.086;5.240;2023-04-02T10:04:34;102233.0;;;4.58;72.45
50652;BME280;66928;52.086;5.240;2023-04-02T10:06:14;102240.0;;;4.63;71.0
50652;BME280;66928;52.086;5.240;2023-04-02T10:07:52;102245.0;;;4.55;70.12
50652;BME280;66928;52.086;5.240;2023-04-02T10:11:11;102238.0;;;4.67;70.74
50652;BME280;66928;52.086;5.240;2023-04-02T10:12:53;102244.0;;;4.64;70.52
50652;BME280;66928;52.086;5.240;2023-04-02T10:14:37;102242.0;;;4.74;69.58
50652;BME280;66928;52.086;5.240;2023-04-02T10:16:16;102240.0;;;4.78;68.19
50652;BME280;66928;52.086;5.240;2023-04-02T10:19:47;102245.0;;;4.86;68.94
50652;BME280;66928;52.086;5.240;2023-04-02T10:21:27;102239.0;;;4.95;69.41
50652;BME280;66928;52.086;5.240;2023-04-02T10:23:12;102249.0;;;5.12;68.74
50652;BME280;66928;52.086;5.240;2023-04-02T10:24:50;102244.0;;;5.08;68.55
50652;BME280;66928;52.086;5.240;2023-04-02T10:28:40;102253.0;;;5.07;68.88
50652;BME280;66928;52.086;5.240;2023-04-02T10:30:41;102270.0;;;5.23;69.11
50652;BME280;66928;52.086;5.240;2023-04-02T10:32:23;102261.0;;;5.12;67.78
50652;BME280;66928;52.086;5.240;2023-04-02T10:34:10;102261.0;;;5.15;67.85
50652;BME280;66928;52.086;5.240;2023-04-02T10:35:55;102258.0;;;5.27;67.67
50652;BME280;66928;52.086;5.240;2023-04-02T10:37:49;102266.0;;;5.37;67.58
50652;BME280;66928;52.086;5.240;2023-04-02T10:40:27;102259.0;;;5.47;67.2
50652;BME280;66928;52.086;5.240;2023-04-02T10:42:10;102268.0;;;5.57;66.75
50652;BME280;66928;52.086;5.240;2023-04-02T10:44:01;102261.0;;;5.67;65.95
50652;BME280;66928;52.086;5.240;2023-04-02T10:46:00;102267.0;;;5.71;65.22
50652;BME280;66928;52.086;5.240;2023-04-02T10:47:45;102265.0;;;5.72;65.58
50652;BME280;66928;52.086;5.240;2023-04-02T10:51:28;102273.0;;;5.82;64.52
50652;BME280;66928;52.086;5.240;2023-04-02T10:53:12;102274.0;;;5.83;64.95
50652;BME280;66928;52.086;5.240;2023-04-02T10:54:53;102264.0;;;5.93;63.95
50652;BME280;66928;52.086;5.240;2023-04-02T10:56:30;102261.0;;;6.1;63.95
50652;BME280;66928;52.086;5.240;2023-04-02T10:58:21;102268.0;;;6.3;63.64
50652;BME280;66928;52.086;5.240;2023-04-02T11:01:45;102275.0;;;6.4;62.37
50652;BME280;66928;52.086;5.240;2023-04-02T11:03:30;102274.0;;;6.52;60.9
50652;BME280;66928;52.086;5.240;2023-04-02T11:05:17;102271.0;;;6.61;61.8
50652;BME280;66928;52.086;5.240;2023-04-02T11:06:57;102280.0;;;6.76;61.84
50652;BME280;66928;52.086;5.240;2023-04-02T11:08:38;102273.0;;;6.66;61.93
50652;BME280;66928;52.086;5.240;2023-04-02T11:11:58;102273.0;;;6.67;61.79
50652;BME280;66928;52.086;5.240;2023-04-02T11:13:44;102267.0;;;6.72;62.32
50652;BME280;66928;52.086;5.240;2023-04-02T11:15:26;102276.0;;;6.7;60.8
50652;BME280;66928;52.086;5.240;2023-04-02T11:17:04;102282.0;;;6.65;61.67
50652;BME280;66928;52.086;5.240;2023-04-02T11:20:56;102287.0;;;6.81;62.83
50652;BME280;66928;52.086;5.240;2023-04-02T11:22:39;102286.0;;;6.83;62.21
50652;BME280;66928;52.086;5.240;2023-04-02T11:24:25;102305.0;;;6.91;62.1
50652;BME280;66928;52.086;5.240;2023-04-02T11:26:40;102303.0;;;6.93;61.2
50652;BME280;66928;52.086;5.240;2023-04-02T11:28:25;102307.0;;;6.94;60.76
50652;BME280;66928;52.086;5.240;2023-04-02T11:30:18;102314.0;;;6.86;60.4
50652;BME280;66928;52.086;5.240;2023-04-02T11:32:25;102306.0;;;6.96;60.99
50652;BME280;66928;52.086;5.240;2023-04-02T11:34:14;102318.0;;;7.04;60.53
50652;BME280;66928;52.086;5.240;2023-04-02T11:35:51;102311.0;;;7.06;60.53
50652;BME280;66928;52.086;5.240;2023-04-02T11:39:10;102316.0;;;7.1;60.72
50652;BME280;66928;52.086;5.240;2023-04-02T11:40:48;102318.0;;;6.95;61.08
50652;BME280;66928;52.086;5.240;2023-04-02T11:42:29;102331.0;;;6.89;60.6
50652;BME280;66928;52.086;5.240;2023-04-02T11:44:21;102314.0;;;7.05;60.5
50652;BME280;66928;52.086;5.240;2023-04-02T11:47:36;102325.0;;;7.14;60.51
50652;BME280;66928;52.086;5.240;2023-04-02T11:49:32;102325.0;;;7.25;60.65
50652;BME280;66928;52.086;5.240;2023-04-02T11:52:50;102344.0;;;7.22;59.63
50652;BME280;66928;52.086;5.240;2023-04-02T11:54:33;102325.0;;;7.19;59.54
50652;BME280;66928;52.086;5.240;2023-04-02T11:58:03;102321.0;;;7.22;60.09
50652;BME280;66928;52.086;5.240;2023-04-02T12:00:20;102330.0;;;7.35;59.39
50652;BME280;66928;52.086;5.240;2023-04-02T12:02:12;102338.0;;;7.41;59.39
50652;BME280;66928;52.086;5.240;2023-04-02T12:05:02;102328.0;;;7.38;58.6
50652;BME280;66928;52.086;5.240;2023-04-02T12:08:09;102332.0;;;7.57;58.86
50652;BME280;66928;52.086;5.240;2023-04-02T12:10:16;102336.0;;;7.65;57.97
50652;BME280;66928;52.086;5.240;2023-04-02T12:11:55;102351.0;;;7.49;58.66
50652;BME280;66928;52.086;5.240;2023-04-02T12:13:51;102342.0;;;7.53;58.26
50652;BME280;66928;52.086;5.240;2023-04-02T12:15:35;102344.0;;;7.62;58.51
50652;BME280;66928;52.086;5.240;2023-04-02T12:19:07;102362.0;;;7.57;58.09
50652;BME280;66928;52.086;5.240;2023-04-02T12:20:47;102359.0;;;7.55;58.19
50652;BME280;66928;52.086;5.240;2023-04-02T12:22:27;102353.0;;;7.71;58.75
50652;BME280;66928;52.086;5.240;2023-04-02T12:24:05;102348.0;;;7.71;57.87
50652;BME280;66928;52.086;5.240;2023-04-02T12:25:55;102346.0;;;7.73;56.98
50652;BME280;66928;52.086;5.240;2023-04-02T12:29:21;102355.0;;;7.67;56.79
50652;BME280;66928;52.086;5.240;2023-04-02T12:31:12;102343.0;;;7.75;57.24
50652;BME280;66928;52.086;5.240;2023-04-02T12:32:50;102338.0;;;7.88;57.5
50652;BME280;66928;52.086;5.240;2023-04-02T12:34:28;102350.0;;;8.01;57.3
50652;BME280;66928;52.086;5.240;2023-04-02T12:37:54;102364.0;;;8.14;56.98
50652;BME280;66928;52.086;5.240;2023-04-02T12:39:32;102353.0;;;8.17;56.16
50652;BME280;66928;52.086;5.240;2023-04-02T12:41:20;102357.0;;;8.3;57.56
50652;BME280;66928;52.086;5.240;2023-04-02T12:42:57;102365.0;;;8.35;56.45
50652;BME280;66928;52.086;5.240;2023-04-02T12:46:13;102357.0;;;8.38;54.91
50652;BME280;66928;52.086;5.240;2023-04-02T12:47:50;102360.0;;;8.49;54.76
50652;BME280;66928;52.086;5.240;2023-04-02T12:49:33;102363.0;;;8.3;54.37
50652;BME280;66928;52.086;5.240;2023-04-02T12:51:10;102360.0;;;8.24;55.01
50652;BME280;66928;52.086;5.240;2023-04-02T12:54:26;102367.0;;;8.3;54.34
50652;BME280;66928;52.086;5.240;2023-04-02T12:56:04;102356.0;;;8.45;54.74
50652;BME280;66928;52.086;5.240;2023-04-02T12:57:41;102355.0;;;8.4;53.23
50652;BME280;66928;52.086;5.240;2023-04-02T12:59:28;102360.0;;;8.6;53.9
50652;BME280;66928;52.086;5.240;2023-04-02T13:02:58;102360.0;;;8.61;53.33
50652;BME280;66928;52.086;5.240;2023-04-02T13:04:45;102357.0;;;8.89;52.38
50652;BME280;66928;52.086;5.240;2023-04-02T13:06:23;102370.0;;;9.02;52.06
50652;BME280;66928;52.086;5.240;2023-04-02T13:07:59;102366.0;;;8.99;51.49
50652;BME280;66928;52.086;5.240;2023-04-02T13:11:21;102367.0;;;8.86;51.02
50652;BME280;66928;52.086;5.240;2023-04-02T13:12:59;102365.0;;;8.82;51.33
50652;BME280;66928;52.086;5.240;2023-04-02T13:14:37;102368.0;;;8.88;51.81
50652;BME280;66928;52.086;5.240;2023-04-02T13:16:25;102374.0;;;8.88;51.38
50652;BME280;66928;52.086;5.240;2023-04-02T13:18:19;102368.0;;;8.84;51.63
50652;BME280;66928;52.086;5.240;2023-04-02T13:22:29;102364.0;;;8.99;52.36
50652;BME280;66928;52.086;5.240;2023-04-02T13:24:15;102372.0;;;9.25;52.57
50652;BME280;66928;52.086;5.240;2023-04-02T13:25:52;102366.0;;;9.39;51.8
50652;BME280;66928;52.086;5.240;2023-04-02T13:27:29;102374.0;;;9.48;51.09
50652;BME280;66928;52.086;5.240;2023-04-02T13:29:18;102372.0;;;9.47;49.37
50652;BME280;66928;52.086;5.240;2023-04-02T13:30:55;102362.0;;;9.38;48.97
50652;BME280;66928;52.086;5.240;2023-04-02T13:34:09;102380.0;;;9.36;48.74
50652;BME280;66928;52.086;5.240;2023-04-02T13:35:45;102375.0;;;9.33;48.42
50652;BME280;66928;52.086;5.240;2023-04-02T13:37:23;102376.0;;;9.26;48.9
50652;BME280;66928;52.086;5.240;2023-04-02T13:38:59;102374.0;;;9.31;48.9
50652;BME280;66928;52.086;5.240;2023-04-02T13:42:13;102386.0;;;9.43;49.07
50652;BME280;66928;52.086;5.240;2023-04-02T13:43:52;102377.0;;;9.26;49.06
50652;BME280;66928;52.086;5.240;2023-04-02T13:45:32;102375.0;;;9.23;49.43
50652;BME280;66928;52.086;5.240;2023-04-02T13:48:52;102376.0;;;9.39;49.55
50652;BME280;66928;52.086;5.240;2023-04-02T13:50:31;102376.0;;;9.56;49.69
50652;BME280;66928;52.086;5.240;2023-04-02T13:52:12;102383.0;;;9.53;47.5
50652;BME280;66928;52.086;5.240;2023-04-02T13:53:53;102391.0;;;9.46;47.07
50652;BME280;66928;52.086;5.240;2023-04-02T13:57:14;102402.0;;;9.47;47.31
50652;BME280;66928;52.086;5.240;2023-04-02T13:58:51;102399.0;;;9.47;47.41
50652;BME280;66928;52.086;5.240;2023-04-02T14:00:29;102400.0;;;9.48;47.51
50652;BME280;66928;52.086;5.240;2023-04-02T14:02:08;102404.0;;;9.44;46.7
50652;BME280;66928;52.086;5.240;2023-04-02T14:05:31;102408.99999999999;;;9.57;46.15
50652;BME280;66928;52.086;5.240;2023-04-02T14:07:19;102406.0;;;9.52;46.46
50652;BME280;66928;52.086;5.240;2023-04-02T14:09:39;102400.0;;;9.64;46.97
50652;BME280;66928;52.086;5.240;2023-04-02T14:11:30;102388.0;;;9.69;47.14
50652;BME280;66928;52.086;5.240;2023-04-02T14:13:28;102394.0;;;9.76;47.23
50652;BME280;66928;52.086;5.240;2023-04-02T14:15:18;102390.0;;;9.82;47.36
50652;BME280;66928;52.086;5.240;2023-04-02T14:17:26;102402.0;;;9.86;47.27
50652;BME280;66928;52.086;5.240;2023-04-02T14:19:17;102409.99999999999;;;9.88;46.9
50652;BME280;66928;52.086;5.240;2023-04-02T14:21:05;102407.0;;;9.82;47.2
50652;BME280;66928;52.086;5.240;2023-04-02T14:24:56;102406.0;;;9.72;47.12
50652;BME280;66928;52.086;5.240;2023-04-02T14:28:29;102405.0;;;9.76;47.73
50652;BME280;66928;52.086;5.240;2023-04-02T14:30:16;102407.0;;;9.9;47.77
50652;BME280;66928;52.086;5.240;2023-04-02T14:32:02;102416.00000000001;;;9.97;47.01
50652;BME280;66928;52.086;5.240;2023-04-02T14:33:48;102415.00000000001;;;10.0;46.68
50652;BME280;66928;52.086;5.240;2023-04-02T14:35:32;102433.0;;;10.07;46.18
50652;BME280;66928;52.086;5.240;2023-04-02T14:39:03;102414.00000000001;;;10.23;46.45
50652;BME280;66928;52.086;5.240;2023-04-02T14:40:46;102425.0;;;10.22;47.11
50652;BME280;66928;52.086;5.240;2023-04-02T14:42:30;102419.0;;;10.34;47.46
50652;BME280;66928;52.086;5.240;2023-04-02T14:44:10;102419.0;;;10.24;45.74
50652;BME280;66928;52.086;5.240;2023-04-02T14:47:37;102438.00000000001;;;10.14;44.38
50652;BME280;66928;52.086;5.240;2023-04-02T14:49:21;102441.00000000001;;;10.22;45.0
50652;BME280;66928;52.086;5.240;2023-04-02T14:51:03;102431.0;;;10.15;45.3
50652;BME280;66928;52.086;5.240;2023-04-02T14:52:43;102433.0;;;10.27;45.25
50652;BME280;66928;52.086;5.240;2023-04-02T14:54:29;102439.00000000001;;;10.21;44.98
50652;BME280;66928;52.086;5.240;2023-04-02T14:57:49;102444.0;;;10.23;46.2
50652;BME280;66928;52.086;5.240;2023-04-02T14:59:29;102450.0;;;10.16;46.5
50652;BME280;66928;52.086;5.240;2023-04-02T15:01:10;102444.0;;;10.28;47.01
50652;BME280;66928;52.086;5.240;2023-04-02T15:02:53;102447.0;;;10.16;46.75
50652;BME280;66928;52.086;5.240;2023-04-02T15:06:19;102442.0;;;10.19;47.59
50652;BME280;66928;52.086;5.240;2023-04-02T15:08:02;102444.0;;;10.34;47.56
50652;BME280;66928;52.086;5.240;2023-04-02T15:09:42;102452.0;;;10.31;46.71
50652;BME280;66928;52.086;5.240;2023-04-02T15:11:24;102444.0;;;10.22;45.6
50652;BME280;66928;52.086;5.240;2023-04-02T15:14:55;102452.0;;;10.29;45.27
50652;BME280;66928;52.086;5.240;2023-04-02T15:16:35;102442.0;;;10.06;46.68
50652;BME280;66928;52.086;5.240;2023-04-02T15:18:14;102445.0;;;10.23;46.98
50652;BME280;66928;52.086;5.240;2023-04-02T15:19:58;102447.0;;;10.14;46.56
50652;BME280;66928;52.086;5.240;2023-04-02T15:21:51;102448.0;;;10.24;46.44
50652;BME280;66928;52.086;5.240;2023-04-02T15:23:47;102452.0;;;10.22;46.25
50652;BME280;66928;52.086;5.240;2023-04-02T15:27:21;102454.0;;;10.36;46.07
50652;BME280;66928;52.086;5.240;2023-04-02T15:29:12;102458.99999999999;;;10.34;45.83
50652;BME280;66928;52.086;5.240;2023-04-02T15:30:56;102467.0;;;10.29;45.76
50652;BME280;66928;52.086;5.240;2023-04-02T15:32:36;102478.0;;;10.34;45.07
50652;BME280;66928;52.086;5.240;2023-04-02T15:34:20;102456.0;;;10.43;45.68
50652;BME280;66928;52.086;5.240;2023-04-02T15:39:02;102453.0;;;10.45;45.76
50652;BME280;66928;52.086;5.240;2023-04-02T15:40:52;102469.0;;;10.38;46.91
50652;BME280;66928;52.086;5.240;2023-04-02T15:42:37;102457.0;;;10.33;45.87
50652;BME280;66928;52.086;5.240;2023-04-02T15:45:58;102466.00000000001;;;10.31;46.01
50652;BME280;66928;52.086;5.240;2023-04-02T15:47:55;102458.99999999999;;;10.34;46.17
50652;BME280;66928;52.086;5.240;2023-04-02T15:49:41;102459.99999999999;;;10.27;45.95
50652;BME280;66928;52.086;5.240;2023-04-02T15:51:31;102463.00000000001;;;10.43;46.46
50652;BME280;66928;52.086;5.240;2023-04-02T15:53:29;102461.99999999999;;;10.34;45.78
50652;BME280;66928;52.086;5.240;2023-04-02T15:55:16;102458.99999999999;;;10.51;46.34
50652;BME280;66928;52.086;5.240;2023-04-02T15:59:01;102465.00000000001;;;10.33;46.45
50652;BME280;66928;52.086;5.240;2023-04-02T16:00:48;102466.00000000001;;;10.45;46.5
50652;BME280;66928;52.086;5.240;2023-04-02T16:02:39;102471.0;;;10.56;46.29
50652;BME280;66928;52.086;5.240;2023-04-02T16:04:37;102471.0;;;10.44;46.65
50652;BME280;66928;52.086;5.240;2023-04-02T16:06:25;102474.0;;;10.48;46.76
50652;BME280;66928;52.086;5.240;2023-04-02T16:08:17;102481.0;;;10.34;46.51
50652;BME280;66928;52.086;5.240;2023-04-02T16:10:50;102480.0;;;10.56;46.74
50652;BME280;66928;52.086;5.240;2023-04-02T16:12:28;102489.00000000001;;;10.51;46.64
50652;BME280;66928;52.086;5.240;2023-04-02T16:14:19;102484.99999999999;;;10.45;47.11
50652;BME280;66928;52.086;5.240;2023-04-02T16:16:04;102482.0;;;10.43;46.76
50652;BME280;66928;52.086;5.240;2023-04-02T16:19:27;102483.0;;;10.47;46.79
50652;BME280;66928;52.086;5.240;2023-04-02T16:21:09;102491.00000000001;;;10.43;47.35
50652;BME280;66928;52.086;5.240;2023-04-02T16:22:55;102494.0;;;10.47;48.06
50652;BME280;66928;52.086;5.240;2023-04-02T16:24:35;102497.0;;;10.51;48.03
50652;BME280;66928;52.086;5.240;2023-04-02T16:28:32;102502.0;;;10.31;48.66
50652;BME280;66928;52.086;5.240;2023-04-02T16:32:18;102501.0;;;10.29;48.35
50652;BME280;66928;52.086;5.240;2023-04-02T16:34:06;102501.0;;;10.48;48.47
50652;BME280;66928;52.086;5.240;2023-04-02T16:35:58;102508.0;;;10.54;47.71
50652;BME280;66928;52.086;5.240;2023-04-02T16:37:44;102520.0;;;10.5;48.38
50652;BME280;66928;52.086;5.240;2023-04-02T16:39:33;102514.00000000001;;;10.51;48.35
50652;BME280;66928;52.086;5.240;2023-04-02T16:41:19;102516.00000000001;;;10.38;47.99
50652;BME280;66928;52.086;5.240;2023-04-02T16:44:56;102511.99999999999;;;10.39;48.38
50652;BME280;66928;52.086;5.240;2023-04-02T16:46:56;102517.0;;;10.39;48.16
50652;BME280;66928;52.086;5.240;2023-04-02T16:48:39;102516.00000000001;;;10.35;48.48